»·PEaware :: DAL813 KSEA-KGEG

DAL813 :: KSEA-KGEG

FLIGHT INFORMATION

Flight Status: Arrived
Operator:
Delta Air Lines
More flights by this operator :: More flights under this callsign
Pilot: Matt D. (16668)
Aircraft: BOEING 737-800
(B738)
More flights by this aircraft type
Origin: KSEA Seattle-Tacoma Intl
United States
Destination: KGEG Spokane Intl
United States
More flights between these airports :: More routes between these airports
Route: +ZADON ZELAK ZIRAN ZOOMR ZOOMR1
File this flight plan on PilotEdge
Remarks:
Altitude:
(Current/Filed)
25,000ft
Speed:
(Current/Filed)
430kts
Departed: 17-Dec-17 08:51 PM
Arrived: 17-Dec-17 09:40 PM
Distance/Time
Traveled:
194nm/0:49
Distance/Time
To Go:
Arrived

Flight Plot

Page will automatically refresh every two minutes.


Map Options




Map Legend


Flown Route
Filed Route
Departure Airport
Arrival Airport
Navaid (VOR, NDB)
Fix

Horizontal Profiles

Position Reports

Time Latitude Longitude Heading Altitude Ground
Speed
17-Dec-17 19:58 47.439214 -122.303333 154 375ft 0kts
17-Dec-17 19:59 47.439214 -122.303333 154 375ft 0kts
17-Dec-17 20:00 47.439214 -122.303333 154 375ft 0kts
17-Dec-17 20:01 47.439214 -122.303333 154 375ft 0kts
17-Dec-17 20:02 47.439214 -122.303333 154 375ft 0kts
17-Dec-17 20:03 47.439214 -122.303333 154 375ft 0kts
17-Dec-17 20:04 47.439214 -122.303333 154 375ft 0kts
17-Dec-17 20:05 47.439214 -122.303333 154 375ft 0kts
17-Dec-17 20:06 47.439214 -122.303333 154 375ft 0kts
17-Dec-17 20:07 47.439214 -122.303333 154 375ft 0kts
17-Dec-17 20:08 47.439214 -122.303333 154 375ft 0kts
17-Dec-17 20:09 47.439214 -122.303333 154 375ft 0kts
17-Dec-17 20:10 47.439214 -122.303333 154 375ft 0kts
17-Dec-17 20:11 47.439214 -122.303333 154 375ft 0kts
17-Dec-17 20:12 47.439214 -122.303333 154 375ft 0kts
17-Dec-17 20:13 47.439214 -122.303333 154 375ft 0kts
17-Dec-17 20:14 47.439214 -122.303333 154 375ft 0kts
17-Dec-17 20:15 47.439214 -122.303333 154 375ft 0kts
17-Dec-17 20:16 47.439214 -122.303333 154 375ft 0kts
17-Dec-17 20:17 47.439214 -122.303333 154 375ft 0kts
17-Dec-17 20:18 47.439214 -122.303333 154 375ft 0kts
17-Dec-17 20:19 47.439214 -122.303333 154 375ft 0kts
17-Dec-17 20:20 47.439214 -122.303333 154 375ft 0kts
17-Dec-17 20:21 47.439214 -122.303333 154 375ft 0kts
17-Dec-17 20:22 47.439214 -122.303333 154 375ft 0kts
17-Dec-17 20:23 47.439214 -122.303333 154 375ft 0kts
17-Dec-17 20:24 47.439214 -122.303333 154 375ft 0kts
17-Dec-17 20:25 47.439214 -122.303333 154 375ft 0kts
17-Dec-17 20:26 47.439214 -122.303333 154 375ft 0kts
17-Dec-17 20:27 47.439214 -122.303333 154 375ft 0kts
17-Dec-17 20:28 47.439214 -122.303333 154 375ft 0kts
17-Dec-17 20:29 47.439214 -122.303333 154 375ft 0kts
17-Dec-17 20:30 47.439214 -122.303333 154 375ft 0kts
17-Dec-17 20:31 47.439214 -122.303333 154 375ft 0kts
17-Dec-17 20:32 47.439214 -122.303333 154 375ft 0kts
17-Dec-17 20:33 47.439506 -122.303540 157 376ft 3kts
17-Dec-17 20:34 47.439957 -122.303302 244 378ft 0kts
17-Dec-17 20:35 47.439957 -122.303302 244 378ft 0kts
17-Dec-17 20:36 47.439933 -122.303374 243 378ft 0kts
17-Dec-17 20:37 47.439483 -122.304575 239 374ft 7kts
17-Dec-17 20:38 47.439425 -122.304722 239 373ft 0kts
17-Dec-17 20:39 47.439424 -122.304725 239 373ft 0kts
17-Dec-17 20:40 47.439424 -122.304725 239 373ft 0kts
17-Dec-17 20:41 47.439424 -122.304725 239 373ft 0kts
17-Dec-17 20:42 47.439424 -122.305045 305 373ft 2kts
17-Dec-17 20:43 47.439457 -122.305099 314 373ft 0kts
17-Dec-17 20:44 47.439457 -122.305099 314 373ft 0kts
17-Dec-17 20:45 47.439462 -122.305107 314 373ft 0kts
17-Dec-17 20:46 47.440191 -122.306105 326 376ft 7kts
17-Dec-17 20:47 47.441892 -122.306370 359 382ft 6kts
17-Dec-17 20:48 47.444263 -122.306338 0 389ft 9kts
17-Dec-17 20:49 47.447651 -122.306309 359 399ft 14kts
17-Dec-17 20:50 47.451454 -122.306262 0 417ft 12kts
17-Dec-17 20:51 47.454864 -122.306255 1 432ft 12kts
17-Dec-17 20:52 47.458623 -122.306195 0 440ft 16kts
17-Dec-17 20:53 47.462691 -122.306140 0 426ft 14kts
17-Dec-17 20:54 47.463697 -122.306422 306 415ft 0kts
17-Dec-17 20:55 47.463697 -122.306422 306 415ft 0kts
17-Dec-17 20:56 47.463148 -122.307731 185 411ft 4kts
17-Dec-17 20:57 47.452163 -122.307826 180 418ft 111kts
17-Dec-17 20:58 47.414261 -122.307253 181 1186ft 177kts
17-Dec-17 20:59 47.364252 -122.305766 181 3004ft 193kts
17-Dec-17 21:00 47.308938 -122.304257 181 4763ft 213kts
17-Dec-17 21:01 47.248064 -122.302869 181 6768ft 242kts
17-Dec-17 21:02 47.184147 -122.300911 181 9122ft 245kts
17-Dec-17 21:03 47.122948 -122.259538 135 11566ft 279kts
17-Dec-17 21:04 47.091462 -122.156660 92 13908ft 283kts
17-Dec-17 21:05 47.111478 -122.045118 47 15033ft 312kts
17-Dec-17 21:06 47.180947 -121.959940 22 14994ft 333kts
17-Dec-17 21:07 47.259773 -121.889565 19 16020ft 336kts
17-Dec-17 21:08 47.345199 -121.844115 6 18563ft 335kts
17-Dec-17 21:09 47.436146 -121.803401 6 21015ft 346kts
17-Dec-17 21:10 47.527911 -121.755037 23 23218ft 377kts
17-Dec-17 21:11 47.578292 -121.609259 84 24965ft 442kts
17-Dec-17 21:12 47.562611 -121.456476 93 24988ft 458kts
17-Dec-17 21:13 47.553859 -121.231153 89 24972ft 500kts
17-Dec-17 21:14 47.550192 -121.064157 88 24965ft 500kts
17-Dec-17 21:15 47.545584 -120.825662 87 24968ft 498kts
17-Dec-17 21:16 47.542074 -120.622908 87 24971ft 495kts
17-Dec-17 21:17 47.539412 -120.453213 87 24973ft 494kts
17-Dec-17 21:18 47.528299 -120.220830 92 24964ft 496kts
17-Dec-17 21:19 47.518051 -120.052455 92 24965ft 495kts
17-Dec-17 21:20 47.505891 -119.849335 91 24969ft 497kts
17-Dec-17 21:21 47.492134 -119.612353 90 24990ft 497kts
17-Dec-17 21:22 47.482844 -119.446597 90 24446ft 474kts
17-Dec-17 21:23 47.472971 -119.264843 91 23505ft 452kts
17-Dec-17 21:24 47.463255 -119.080690 91 22490ft 449kts
17-Dec-17 21:25 47.453972 -118.900715 91 21092ft 432kts
17-Dec-17 21:26 47.445348 -118.728196 91 19459ft 412kts
17-Dec-17 21:27 47.437412 -118.564629 92 17672ft 391kts
17-Dec-17 21:28 47.438455 -118.408793 73 15895ft 370kts
17-Dec-17 21:29 47.470635 -118.274931 65 14171ft 354kts
17-Dec-17 21:30 47.507463 -118.144529 60 12962ft 328kts
17-Dec-17 21:31 47.547097 -118.022993 59 12968ft 330kts
17-Dec-17 21:32 47.586534 -117.900548 60 11715ft 327kts
17-Dec-17 21:33 47.625325 -117.781368 61 10124ft 318kts
17-Dec-17 21:34 47.668165 -117.671785 51 8563ft 305kts
17-Dec-17 21:35 47.719500 -117.581862 50 6938ft 272kts
17-Dec-17 21:36 47.767447 -117.500313 50 5331ft 257kts
17-Dec-17 21:37 47.811116 -117.421421 63 4997ft 244kts
17-Dec-17 21:38 47.817442 -117.326443 109 4331ft 238kts
17-Dec-17 21:39 47.779537 -117.259916 157 4019ft 213kts
17-Dec-17 21:40 47.723477 -117.263194 209 4018ft 203kts
17-Dec-17 21:41 47.696071 -117.323119 261 4020ft 168kts
17-Dec-17 21:42 47.693114 -117.393013 265 3996ft 171kts
17-Dec-17 21:43 47.680477 -117.455944 224 3816ft 166kts
17-Dec-17 21:44 47.645156 -117.497022 224 2798ft 165kts
17-Dec-17 21:45 47.617519 -117.538693 225 2371ft 47kts
17-Dec-17 21:46 47.613743 -117.545286 283 2379ft 9kts
17-Dec-17 21:47 47.615404 -117.546137 47 2376ft 7kts
17-Dec-17 21:48 47.617096 -117.543568 46 2372ft 11kts
17-Dec-17 21:49 47.619655 -117.539720 47 2367ft 13kts
17-Dec-17 21:50 47.622070 -117.536063 45 2363ft 10kts
17-Dec-17 21:51 47.623787 -117.535879 357 2362ft 2kts
17-Dec-17 21:52 47.623925 -117.535881 1 2362ft 0kts
17-Dec-17 21:53 47.623925 -117.535881 1 2362ft 0kts
17-Dec-17 21:54 47.623925 -117.535881 1 2362ft 0kts

Navigation Log

Ident Type
Flight plan parsing failed, navigation log unavailable